sensor_id;sensor_type;location;lat;lon;timestamp;pressure;altitude;pressure_sealevel;temperature;humidity
24788;BME280;12883;52.662;5.196;2022-09-09T00:04:29;100659.94;;;16.85;100.00
24788;BME280;12883;52.662;5.196;2022-09-09T00:07:15;100658.06;;;16.85;100.00
24788;BME280;12883;52.662;5.196;2022-09-09T00:09:52;100648.91;;;16.81;100.00
24788;BME280;12883;52.662;5.196;2022-09-09T00:12:42;100648.91;;;16.81;100.00
24788;BME280;12883;52.662;5.196;2022-09-09T00:15:20;100638.00;;;16.71;100.00
24788;BME280;12883;52.662;5.196;2022-09-09T00:20:37;100627.28;;;16.71;100.00
24788;BME280;12883;52.662;5.196;2022-09-09T00:23:20;100635.75;;;16.80;100.00
24788;BME280;12883;52.662;5.196;2022-09-09T00:25:58;100630.56;;;16.73;100.00
24788;BME280;12883;52.662;5.196;2022-09-09T00:28:28;100630.56;;;16.73;100.00
24788;BME280;12883;52.662;5.196;2022-09-09T00:31:22;100633.78;;;16.75;100.00
24788;BME280;12883;52.662;5.196;2022-09-09T00:33:49;100637.78;;;16.73;100.00
24788;BME280;12883;52.662;5.196;2022-09-09T00:36:18;100639.16;;;16.75;100.00
24788;BME280;12883;52.662;5.196;2022-09-09T00:38:49;100630.22;;;16.70;100.00
24788;BME280;12883;52.662;5.196;2022-09-09T00:44:30;100617.81;;;16.64;100.00
24788;BME280;12883;52.662;5.196;2022-09-09T00:52:08;100637.03;;;16.77;100.00
24788;BME280;12883;52.662;5.196;2022-09-09T00:55:04;100634.34;;;16.77;100.00
24788;BME280;12883;52.662;5.196;2022-09-09T00:57:33;100620.81;;;16.67;100.00
24788;BME280;12883;52.662;5.196;2022-09-09T01:02:52;100621.94;;;16.71;100.00
24788;BME280;12883;52.662;5.196;2022-09-09T01:05:35;100629.97;;;16.71;100.00
24788;BME280;12883;52.662;5.196;2022-09-09T01:08:14;100610.41;;;16.54;100.00
24788;BME280;12883;52.662;5.196;2022-09-09T01:10:51;100607.72;;;16.54;100.00
24788;BME280;12883;52.662;5.196;2022-09-09T01:13:27;100618.38;;;16.66;100.00
24788;BME280;12883;52.662;5.196;2022-09-09T01:15:57;100618.03;;;16.62;100.00
24788;BME280;12883;52.662;5.196;2022-09-09T01:18:28;100610.00;;;16.62;100.00
24788;BME280;12883;52.662;5.196;2022-09-09T01:21:07;100614.28;;;16.63;100.00
24788;BME280;12883;52.662;5.196;2022-09-09T01:28:55;100618.53;;;16.59;100.00
24788;BME280;12883;52.662;5.196;2022-09-09T01:31:26;100619.56;;;16.58;100.00
24788;BME280;12883;52.662;5.196;2022-09-09T01:33:53;100615.84;;;16.59;100.00
24788;BME280;12883;52.662;5.196;2022-09-09T01:36:24;100607.50;;;16.56;100.00
24788;BME280;12883;52.662;5.196;2022-09-09T01:38:52;100616.81;;;16.53;100.00
24788;BME280;12883;52.662;5.196;2022-09-09T01:41:18;100611.47;;;16.53;100.00
24788;BME280;12883;52.662;5.196;2022-09-09T01:43:44;100602.13;;;16.39;100.00
24788;BME280;12883;52.662;5.196;2022-09-09T01:46:10;100608.69;;;16.48;100.00
24788;BME280;12883;52.662;5.196;2022-09-09T01:48:37;100595.13;;;16.38;100.00
24788;BME280;12883;52.662;5.196;2022-09-09T01:51:02;100599.03;;;16.47;100.00
24788;BME280;12883;52.662;5.196;2022-09-09T01:53:28;100598.47;;;16.45;100.00
24788;BME280;12883;52.662;5.196;2022-09-09T01:55:57;100594.47;;;16.48;100.00
24788;BME280;12883;52.662;5.196;2022-09-09T02:01:08;100602.78;;;16.46;100.00
24788;BME280;12883;52.662;5.196;2022-09-09T02:03:39;100601.94;;;16.46;100.00
24788;BME280;12883;52.662;5.196;2022-09-09T02:06:21;100597.09;;;16.43;100.00
24788;BME280;12883;52.662;5.196;2022-09-09T02:08:52;100604.84;;;16.44;100.00
24788;BME280;12883;52.662;5.196;2022-09-09T02:11:19;100600.00;;;16.41;100.00
24788;BME280;12883;52.662;5.196;2022-09-09T02:13:47;100591.03;;;16.36;100.00
24788;BME280;12883;52.662;5.196;2022-09-09T02:19:11;100594.31;;;16.38;100.00
24788;BME280;12883;52.662;5.196;2022-09-09T02:21:40;100598.25;;;16.35;100.00
24788;BME280;12883;52.662;5.196;2022-09-09T02:24:08;100605.50;;;16.35;100.00
24788;BME280;12883;52.662;5.196;2022-09-09T02:26:38;100607.34;;;16.34;100.00
24788;BME280;12883;52.662;5.196;2022-09-09T02:29:08;100601.44;;;16.32;100.00
24788;BME280;12883;52.662;5.196;2022-09-09T02:31:36;100603.03;;;16.33;100.00
24788;BME280;12883;52.662;5.196;2022-09-09T02:34:05;100595.34;;;16.37;100.00
24788;BME280;12883;52.662;5.196;2022-09-09T02:36:33;100584.75;;;16.30;100.00
24788;BME280;12883;52.662;5.196;2022-09-09T02:39:00;100577.78;;;16.29;100.00
24788;BME280;12883;52.662;5.196;2022-09-09T02:41:31;100598.84;;;16.37;100.00
24788;BME280;12883;52.662;5.196;2022-09-09T02:43:57;100594.31;;;16.38;100.00
24788;BME280;12883;52.662;5.196;2022-09-09T02:49:10;100587.94;;;16.27;100.00
24788;BME280;12883;52.662;5.196;2022-09-09T02:56:52;100588.28;;;16.31;100.00
24788;BME280;12883;52.662;5.196;2022-09-09T02:59:19;100601.53;;;16.37;100.00
24788;BME280;12883;52.662;5.196;2022-09-09T03:01:45;100604.19;;;16.37;100.00
24788;BME280;12883;52.662;5.196;2022-09-09T03:04:10;100591.03;;;16.36;100.00
24788;BME280;12883;52.662;5.196;2022-09-09T03:06:35;100604.53;;;16.41;100.00
24788;BME280;12883;52.662;5.196;2022-09-09T03:09:01;100598.03;;;16.37;100.00
24788;BME280;12883;52.662;5.196;2022-09-09T03:11:27;100590.56;;;16.39;100.00
24788;BME280;12883;52.662;5.196;2022-09-09T03:13:53;100586.38;;;16.43;100.00
24788;BME280;12883;52.662;5.196;2022-09-09T03:16:21;100581.75;;;16.38;100.00
24788;BME280;12883;52.662;5.196;2022-09-09T03:18:47;100564.06;;;16.26;100.00
24788;BME280;12883;52.662;5.196;2022-09-09T03:21:12;100584.44;;;16.38;100.00
24788;BME280;12883;52.662;5.196;2022-09-09T03:23:37;100575.78;;;16.36;100.00
24788;BME280;12883;52.662;5.196;2022-09-09T03:26:03;100577.41;;;16.37;100.00
24788;BME280;12883;52.662;5.196;2022-09-09T03:28:28;100581.63;;;16.33;100.00
24788;BME280;12883;52.662;5.196;2022-09-09T03:31:05;100570.91;;;16.33;100.00
24788;BME280;12883;52.662;5.196;2022-09-09T03:33:31;100571.97;;;16.32;100.00
24788;BME280;12883;52.662;5.196;2022-09-09T03:35:57;100584.19;;;16.28;100.00
24788;BME280;12883;52.662;5.196;2022-09-09T03:38:23;100563.41;;;16.19;100.00
24788;BME280;12883;52.662;5.196;2022-09-09T03:40:51;100573.50;;;16.28;100.00
24788;BME280;12883;52.662;5.196;2022-09-09T03:43:16;100557.81;;;16.20;100.00
24788;BME280;12883;52.662;5.196;2022-09-09T03:45:46;100578.38;;;16.31;100.00
24788;BME280;12883;52.662;5.196;2022-09-09T03:48:13;100574.06;;;16.30;100.00
24788;BME280;12883;52.662;5.196;2022-09-09T03:50:39;100575.59;;;16.26;100.00
24788;BME280;12883;52.662;5.196;2022-09-09T03:53:04;100565.13;;;16.25;100.00
24788;BME280;12883;52.662;5.196;2022-09-09T03:55:31;100569.38;;;16.21;100.00
24788;BME280;12883;52.662;5.196;2022-09-09T03:57:57;100568.53;;;16.20;100.00
24788;BME280;12883;52.662;5.196;2022-09-09T04:00:23;100562.94;;;16.22;100.00
24788;BME280;12883;52.662;5.196;2022-09-09T04:02:49;100555.97;;;16.21;100.00
24788;BME280;12883;52.662;5.196;2022-09-09T04:05:15;100557.59;;;16.22;100.00
24788;BME280;12883;52.662;5.196;2022-09-09T04:07:40;100566.09;;;16.19;100.00
24788;BME280;12883;52.662;5.196;2022-09-09T04:10:06;100566.59;;;16.16;100.00
24788;BME280;12883;52.662;5.196;2022-09-09T04:12:32;100566.31;;;16.17;100.00
24788;BME280;12883;52.662;5.196;2022-09-09T04:14:57;100557.97;;;16.14;100.00
24788;BME280;12883;52.662;5.196;2022-09-09T04:17:23;100552.53;;;16.09;100.00
24788;BME280;12883;52.662;5.196;2022-09-09T04:19:48;100560.81;;;16.07;100.00
24788;BME280;12883;52.662;5.196;2022-09-09T04:22:13;100545.25;;;16.04;100.00
24788;BME280;12883;52.662;5.196;2022-09-09T04:24:39;100551.16;;;16.06;100.00
24788;BME280;12883;52.662;5.196;2022-09-09T04:27:04;100554.88;;;16.05;100.00
24788;BME280;12883;52.662;5.196;2022-09-09T04:29:30;100560.81;;;16.07;100.00
24788;BME280;12883;52.662;5.196;2022-09-09T04:31:55;100550.59;;;16.04;100.00
24788;BME280;12883;52.662;5.196;2022-09-09T04:34:20;100545.31;;;16.09;100.00
24788;BME280;12883;52.662;5.196;2022-09-09T04:36:46;100547.53;;;16.12;100.00
24788;BME280;12883;52.662;5.196;2022-09-09T04:39:11;100554.16;;;16.10;100.00
24788;BME280;12883;52.662;5.196;2022-09-09T04:41:36;100547.53;;;16.12;100.00
24788;BME280;12883;52.662;5.196;2022-09-09T04:44:02;100544.75;;;16.07;100.00
24788;BME280;12883;52.662;5.196;2022-09-09T04:46:28;100537.53;;;16.08;100.00
24788;BME280;12883;52.662;5.196;2022-09-09T04:48:54;100547.31;;;16.02;100.00
24788;BME280;12883;52.662;5.196;2022-09-09T04:51:19;100550.00;;;16.02;100.00
24788;BME280;12883;52.662;5.196;2022-09-09T04:53:44;100543.25;;;16.00;100.00
24788;BME280;12883;52.662;5.196;2022-09-09T04:56:16;100549.44;;;16.00;100.00
24788;BME280;12883;52.662;5.196;2022-09-09T04:58:41;100552.59;;;15.97;100.00
24788;BME280;12883;52.662;5.196;2022-09-09T05:01:12;100546.66;;;15.95;100.00
24788;BME280;12883;52.662;5.196;2022-09-09T05:03:38;100544.47;;;15.92;100.00
24788;BME280;12883;52.662;5.196;2022-09-09T05:06:08;100537.25;;;15.93;100.00
24788;BME280;12883;52.662;5.196;2022-09-09T05:08:36;100520.69;;;15.79;100.00
24788;BME280;12883;52.662;5.196;2022-09-09T05:11:01;100541.25;;;15.90;100.00
24788;BME280;12883;52.662;5.196;2022-09-09T05:13:27;100542.03;;;15.91;100.00
24788;BME280;12883;52.662;5.196;2022-09-09T05:15:53;100537.91;;;15.83;100.00
24788;BME280;12883;52.662;5.196;2022-09-09T05:18:19;100554.63;;;15.90;100.00
24788;BME280;12883;52.662;5.196;2022-09-09T05:20:45;100543.09;;;15.90;100.00
24788;BME280;12883;52.662;5.196;2022-09-09T05:23:10;100544.38;;;15.87;100.00
24788;BME280;12883;52.662;5.196;2022-09-09T05:25:39;100556.97;;;15.87;100.00
24788;BME280;12883;52.662;5.196;2022-09-09T05:28:05;100549.06;;;15.80;100.00
24788;BME280;12883;52.662;5.196;2022-09-09T05:30:32;100545.00;;;15.78;100.00
24788;BME280;12883;52.662;5.196;2022-09-09T05:32:57;100545.34;;;15.81;100.00
24788;BME280;12883;52.662;5.196;2022-09-09T05:35:23;100536.56;;;15.69;100.00
24788;BME280;12883;52.662;5.196;2022-09-09T05:37:48;100550.44;;;15.83;100.00
24788;BME280;12883;52.662;5.196;2022-09-09T05:40:14;100556.84;;;15.82;100.00
24788;BME280;12883;52.662;5.196;2022-09-09T05:42:40;100549.63;;;15.82;100.00
24788;BME280;12883;52.662;5.196;2022-09-09T05:45:07;100554.19;;;15.82;100.00
24788;BME280;12883;52.662;5.196;2022-09-09T05:47:33;100539.81;;;15.71;100.00
24788;BME280;12883;52.662;5.196;2022-09-09T05:49:58;100541.59;;;15.82;100.00
24788;BME280;12883;52.662;5.196;2022-09-09T05:52:24;100533.50;;;15.77;100.00
24788;BME280;12883;52.662;5.196;2022-09-09T05:54:51;100534.63;;;15.81;100.00
24788;BME280;12883;52.662;5.196;2022-09-09T05:57:16;100544.88;;;15.84;100.00
24788;BME280;12883;52.662;5.196;2022-09-09T05:59:42;100541.13;;;15.85;100.00
24788;BME280;12883;52.662;5.196;2022-09-09T06:02:08;100554.63;;;15.90;100.00
24788;BME280;12883;52.662;5.196;2022-09-09T06:04:34;100551.22;;;15.95;100.00
24788;BME280;12883;52.662;5.196;2022-09-09T06:06:59;100545.28;;;15.93;100.00
24788;BME280;12883;52.662;5.196;2022-09-09T06:09:25;100533.22;;;15.90;100.00
24788;BME280;12883;52.662;5.196;2022-09-09T06:11:50;100545.25;;;16.04;100.00
24788;BME280;12883;52.662;5.196;2022-09-09T06:14:16;100543.59;;;16.03;100.00
24788;BME280;12883;52.662;5.196;2022-09-09T06:16:43;100542.06;;;16.07;100.00
24788;BME280;12883;52.662;5.196;2022-09-09T06:19:09;100538.34;;;16.08;100.00
24788;BME280;12883;52.662;5.196;2022-09-09T06:21:36;100535.84;;;16.18;100.00
24788;BME280;12883;52.662;5.196;2022-09-09T06:24:02;100547.34;;;16.19;100.00
24788;BME280;12883;52.662;5.196;2022-09-09T06:26:34;100549.22;;;16.18;100.00
24788;BME280;12883;52.662;5.196;2022-09-09T06:29:01;100535.75;;;16.13;100.00
24788;BME280;12883;52.662;5.196;2022-09-09T06:31:29;100547.22;;;16.25;100.00
24788;BME280;12883;52.662;5.196;2022-09-09T06:33:56;100546.16;;;16.26;100.00
24788;BME280;12883;52.662;5.196;2022-09-09T06:36:30;100545.25;;;16.21;100.00
24788;BME280;12883;52.662;5.196;2022-09-09T06:38:56;100550.22;;;16.29;100.00
24788;BME280;12883;52.662;5.196;2022-09-09T06:41:24;100539.19;;;16.25;100.00
24788;BME280;12883;52.662;5.196;2022-09-09T06:43:51;100537.16;;;16.32;100.00
24788;BME280;12883;52.662;5.196;2022-09-09T06:46:17;100528.19;;;16.38;100.00
24788;BME280;12883;52.662;5.196;2022-09-09T06:48:44;100529.22;;;16.37;100.00
24788;BME280;12883;52.662;5.196;2022-09-09T06:51:15;100530.03;;;16.38;100.00
24788;BME280;12883;52.662;5.196;2022-09-09T06:53:42;100529.16;;;16.49;100.00
24788;BME280;12883;52.662;5.196;2022-09-09T06:56:30;100534.25;;;16.50;100.00
24788;BME280;12883;52.662;5.196;2022-09-09T06:59:01;100530.69;;;16.61;100.00
24788;BME280;12883;52.662;5.196;2022-09-09T07:01:33;100525.41;;;16.66;100.00
24788;BME280;12883;52.662;5.196;2022-09-09T07:03:59;100527.34;;;16.71;100.00
24788;BME280;12883;52.662;5.196;2022-09-09T07:06:30;100543.75;;;16.74;100.00
24788;BME280;12883;52.662;5.196;2022-09-09T07:08:58;100550.22;;;16.78;100.00
24788;BME280;12883;52.662;5.196;2022-09-09T07:11:27;100538.84;;;16.88;100.00
24788;BME280;12883;52.662;5.196;2022-09-09T07:13:53;100531.09;;;16.91;100.00
24788;BME280;12883;52.662;5.196;2022-09-09T07:16:20;100545.81;;;16.89;100.00
24788;BME280;12883;52.662;5.196;2022-09-09T07:18:46;100545.56;;;16.90;100.00
24788;BME280;12883;52.662;5.196;2022-09-09T07:21:13;100546.88;;;16.88;100.00
24788;BME280;12883;52.662;5.196;2022-09-09T07:23:40;100546.63;;;16.89;100.00
24788;BME280;12883;52.662;5.196;2022-09-09T07:26:13;100547.69;;;16.88;100.00
24788;BME280;12883;52.662;5.196;2022-09-09T07:28:39;100542.66;;;16.92;100.00
24788;BME280;12883;52.662;5.196;2022-09-09T07:31:06;100544.44;;;16.86;100.00
24788;BME280;12883;52.662;5.196;2022-09-09T07:33:33;100551.00;;;16.95;100.00
24788;BME280;12883;52.662;5.196;2022-09-09T07:36:14;100551.88;;;17.01;100.00
24788;BME280;12883;52.662;5.196;2022-09-09T07:38:44;100554.78;;;17.16;100.00
24788;BME280;12883;52.662;5.196;2022-09-09T07:41:15;100547.63;;;17.21;100.00
24788;BME280;12883;52.662;5.196;2022-09-09T07:43:42;100550.34;;;17.26;100.00
24788;BME280;12883;52.662;5.196;2022-09-09T07:46:09;100532.09;;;17.23;100.00
24788;BME280;12883;52.662;5.196;2022-09-09T07:48:35;100561.28;;;17.41;100.00
24788;BME280;12883;52.662;5.196;2022-09-09T07:51:09;100540.59;;;17.20;100.00
24788;BME280;12883;52.662;5.196;2022-09-09T07:53:37;100548.72;;;17.42;100.00
24788;BME280;12883;52.662;5.196;2022-09-09T07:56:08;100565.97;;;17.51;100.00
24788;BME280;12883;52.662;5.196;2022-09-09T07:58:38;100563.81;;;17.48;100.00
24788;BME280;12883;52.662;5.196;2022-09-09T08:01:12;100556.00;;;17.46;100.00
24788;BME280;12883;52.662;5.196;2022-09-09T08:03:38;100559.84;;;17.55;100.00
24788;BME280;12883;52.662;5.196;2022-09-09T08:06:06;100580.28;;;17.56;100.00
24788;BME280;12883;52.662;5.196;2022-09-09T08:08:35;100560.78;;;17.66;100.00
24788;BME280;12883;52.662;5.196;2022-09-09T08:11:04;100573.41;;;17.65;100.00
24788;BME280;12883;52.662;5.196;2022-09-09T08:13:29;100562.75;;;17.70;100.00
24788;BME280;12883;52.662;5.196;2022-09-09T08:16:04;100570.81;;;17.75;100.00
24788;BME280;12883;52.662;5.196;2022-09-09T08:18:29;100572.09;;;17.68;100.00
24788;BME280;12883;52.662;5.196;2022-09-09T08:20:55;100569.41;;;17.68;100.00
24788;BME280;12883;52.662;5.196;2022-09-09T08:23:20;100560.53;;;17.67;100.00
24788;BME280;12883;52.662;5.196;2022-09-09T08:25:46;100565.31;;;17.87;100.00
24788;BME280;12883;52.662;5.196;2022-09-09T08:28:14;100568.38;;;17.95;100.00
24788;BME280;12883;52.662;5.196;2022-09-09T08:30:39;100573.75;;;17.95;100.00
24788;BME280;12883;52.662;5.196;2022-09-09T08:33:05;100569.59;;;17.83;100.00
24788;BME280;12883;52.662;5.196;2022-09-09T08:35:30;100572.34;;;17.88;100.00
24788;BME280;12883;52.662;5.196;2022-09-09T08:37:57;100572.06;;;17.89;100.00
24788;BME280;12883;52.662;5.196;2022-09-09T08:40:28;100574.19;;;17.87;100.00
24788;BME280;12883;52.662;5.196;2022-09-09T08:43:00;100569.13;;;17.91;100.00
24788;BME280;12883;52.662;5.196;2022-09-09T08:46:11;100578.56;;;17.93;100.00
24788;BME280;12883;52.662;5.196;2022-09-09T08:48:49;100577.72;;;17.93;100.00
24788;BME280;12883;52.662;5.196;2022-09-09T08:51:18;100583.72;;;18.00;100.00
24788;BME280;12883;52.662;5.196;2022-09-09T08:53:50;100587.16;;;17.95;100.00
24788;BME280;12883;52.662;5.196;2022-09-09T08:56:18;100557.69;;;17.74;100.00
24788;BME280;12883;52.662;5.196;2022-09-09T08:58:51;100591.53;;;18.01;100.00
24788;BME280;12883;52.662;5.196;2022-09-09T09:09:55;100597.13;;;18.00;100.00
24788;BME280;12883;52.662;5.196;2022-09-09T09:12:27;100592.03;;;17.98;100.00
24788;BME280;12883;52.662;5.196;2022-09-09T09:14:54;100602.31;;;18.06;100.00
24788;BME280;12883;52.662;5.196;2022-09-09T09:17:26;100600.75;;;18.10;100.00
24788;BME280;12883;52.662;5.196;2022-09-09T09:19:52;100610.00;;;18.19;100.00
24788;BME280;12883;52.662;5.196;2022-09-09T09:28:03;100584.81;;;18.25;100.00
24788;BME280;12883;52.662;5.196;2022-09-09T09:30:39;100595.13;;;18.33;100.00
24788;BME280;12883;52.662;5.196;2022-09-09T09:35:45;100612.22;;;18.54;100.00
24788;BME280;12883;52.662;5.196;2022-09-09T09:38:20;100604.09;;;18.49;100.00
24788;BME280;12883;52.662;5.196;2022-09-09T09:40:57;100612.03;;;18.60;100.00
24788;BME280;12883;52.662;5.196;2022-09-09T09:43:35;100610.84;;;18.51;100.00
24788;BME280;12883;52.662;5.196;2022-09-09T09:46:03;100615.38;;;18.46;100.00
24788;BME280;12883;52.662;5.196;2022-09-09T09:48:29;100614.53;;;18.40;100.00
24788;BME280;12883;52.662;5.196;2022-09-09T09:51:01;100598.28;;;18.30;100.00
24788;BME280;12883;52.662;5.196;2022-09-09T09:53:33;100621.50;;;18.41;100.00
24788;BME280;12883;52.662;5.196;2022-09-09T09:56:06;100609.69;;;18.42;100.00
24788;BME280;12883;52.662;5.196;2022-09-09T10:01:31;100609.03;;;18.30;100.00
24788;BME280;12883;52.662;5.196;2022-09-09T10:04:23;100609.63;;;18.32;100.00
24788;BME280;12883;52.662;5.196;2022-09-09T10:06:49;100590.59;;;18.17;100.00
24788;BME280;12883;52.662;5.196;2022-09-09T10:11:55;100601.56;;;18.37;100.00
24788;BME280;12883;52.662;5.196;2022-09-09T10:20:51;100608.13;;;18.46;100.00
24788;BME280;12883;52.662;5.196;2022-09-09T10:26:31;100609.63;;;18.37;100.00
24788;BME280;12883;52.662;5.196;2022-09-09T10:29:22;100607.56;;;18.44;100.00
24788;BME280;12883;52.662;5.196;2022-09-09T10:37:25;100605.28;;;18.31;100.00
24788;BME280;12883;52.662;5.196;2022-09-09T10:40:13;100605.28;;;18.31;100.00
24788;BME280;12883;52.662;5.196;2022-09-09T10:42:43;100598.03;;;18.32;100.00
24788;BME280;12883;52.662;5.196;2022-09-09T10:45:30;100595.13;;;18.33;100.00
24788;BME280;12883;52.662;5.196;2022-09-09T10:51:28;100593.34;;;18.22;100.00
24788;BME280;12883;52.662;5.196;2022-09-09T10:56:43;100588.91;;;18.33;100.00
24788;BME280;12883;52.662;5.196;2022-09-09T10:59:24;100585.97;;;18.34;100.00
24788;BME280;12883;52.662;5.196;2022-09-09T11:04:32;100589.81;;;18.43;100.00
24788;BME280;12883;52.662;5.196;2022-09-09T11:07:02;100592.56;;;18.48;100.00
24788;BME280;12883;52.662;5.196;2022-09-09T11:09:46;100590.66;;;18.49;100.00
24788;BME280;12883;52.662;5.196;2022-09-09T11:12:18;100590.00;;;18.63;100.00
24788;BME280;12883;52.662;5.196;2022-09-09T11:14:49;100590.28;;;18.67;100.00
24788;BME280;12883;52.662;5.196;2022-09-09T11:17:22;100596.78;;;18.71;100.00
24788;BME280;12883;52.662;5.196;2022-09-09T11:19:49;100597.53;;;18.66;100.00
24788;BME280;12883;52.662;5.196;2022-09-09T11:22:31;100597.03;;;18.69;100.00
24788;BME280;12883;52.662;5.196;2022-09-09T11:25:04;100594.09;;;18.71;100.00
24788;BME280;12883;52.662;5.196;2022-09-09T11:33:46;100597.66;;;18.81;100.00
24788;BME280;12883;52.662;5.196;2022-09-09T11:42:15;100590.13;;;18.83;100.00
24788;BME280;12883;52.662;5.196;2022-09-09T11:44:41;100598.25;;;18.88;100.00
24788;BME280;12883;52.662;5.196;2022-09-09T11:47:37;100590.19;;;18.93;100.00
24788;BME280;12883;52.662;5.196;2022-09-09T11:52:42;100592.44;;;19.01;100.00
24788;BME280;12883;52.662;5.196;2022-09-09T11:55:30;100589.25;;;19.09;100.00
24788;BME280;12883;52.662;5.196;2022-09-09T12:00:32;100595.13;;;19.06;100.00
24788;BME280;12883;52.662;5.196;2022-09-09T12:02:58;100590.88;;;19.10;100.00
24788;BME280;12883;52.662;5.196;2022-09-09T12:05:34;100587.63;;;19.08;100.00
24788;BME280;12883;52.662;5.196;2022-09-09T12:08:02;100592.19;;;19.08;100.00
24788;BME280;12883;52.662;5.196;2022-09-09T12:10:36;100582.84;;;19.15;100.00
24788;BME280;12883;52.662;5.196;2022-09-09T12:13:21;100555.84;;;19.05;100.00
24788;BME280;12883;52.662;5.196;2022-09-09T12:15:58;100573.66;;;19.11;100.00
24788;BME280;12883;52.662;5.196;2022-09-09T12:23:35;100578.59;;;19.24;100.00
24788;BME280;12883;52.662;5.196;2022-09-09T12:26:24;100566.50;;;19.32;100.00
24788;BME280;12883;52.662;5.196;2022-09-09T12:31:59;100571.69;;;19.43;100.00
24788;BME280;12883;52.662;5.196;2022-09-09T12:37:11;100539.59;;;19.32;100.00
24788;BME280;12883;52.662;5.196;2022-09-09T12:39:45;100561.22;;;19.52;100.00
24788;BME280;12883;52.662;5.196;2022-09-09T12:42:20;100557.72;;;19.56;100.00
24788;BME280;12883;52.662;5.196;2022-09-09T12:44:52;100557.69;;;19.46;100.00
24788;BME280;12883;52.662;5.196;2022-09-09T12:47:20;100564.66;;;19.37;100.00
24788;BME280;12883;52.662;5.196;2022-09-09T12:49:47;100536.81;;;19.17;100.00
24788;BME280;12883;52.662;5.196;2022-09-09T12:52:35;100551.63;;;19.19;100.00
24788;BME280;12883;52.662;5.196;2022-09-09T12:55:04;100537.94;;;19.21;100.00
24788;BME280;12883;52.662;5.196;2022-09-09T12:57:36;100536.00;;;19.16;100.00
24788;BME280;12883;52.662;5.196;2022-09-09T13:00:17;100540.88;;;19.19;100.00
24788;BME280;12883;52.662;5.196;2022-09-09T13:03:16;100544.50;;;18.98;100.00
24788;BME280;12883;52.662;5.196;2022-09-09T13:05:42;100528.81;;;18.80;100.00
24788;BME280;12883;52.662;5.196;2022-09-09T13:08:12;100552.13;;;18.70;100.00
24788;BME280;12883;52.662;5.196;2022-09-09T13:10:47;100557.06;;;18.46;100.00
24788;BME280;12883;52.662;5.196;2022-09-09T13:13:21;100549.72;;;18.37;100.00
24788;BME280;12883;52.662;5.196;2022-09-09T13:15:55;100544.59;;;18.35;100.00
24788;BME280;12883;52.662;5.196;2022-09-09T13:18:23;100543.84;;;18.40;100.00
24788;BME280;12883;52.662;5.196;2022-09-09T13:20:50;100536.66;;;18.50;100.00
24788;BME280;12883;52.662;5.196;2022-09-09T13:23:18;100536.16;;;18.53;100.00
24788;BME280;12883;52.662;5.196;2022-09-09T13:25:56;100512.44;;;18.45;100.00
24788;BME280;12883;52.662;5.196;2022-09-09T13:28:25;100539.72;;;18.64;100.00
24788;BME280;12883;52.662;5.196;2022-09-09T13:34:29;100530.59;;;18.70;100.00
24788;BME280;12883;52.662;5.196;2022-09-09T13:37:03;100529.72;;;18.59;100.00
24788;BME280;12883;52.662;5.196;2022-09-09T13:39:36;100546.38;;;18.56;100.00
24788;BME280;12883;52.662;5.196;2022-09-09T13:42:03;100538.91;;;18.63;100.00
24788;BME280;12883;52.662;5.196;2022-09-09T13:44:32;100541.97;;;18.77;100.00
24788;BME280;12883;52.662;5.196;2022-09-09T13:47:20;100540.91;;;18.83;100.00
24788;BME280;12883;52.662;5.196;2022-09-09T13:49:47;100550.06;;;18.82;100.00
24788;BME280;12883;52.662;5.196;2022-09-09T13:52:15;100533.09;;;18.76;100.00
24788;BME280;12883;52.662;5.196;2022-09-09T13:54:42;100548.81;;;18.94;100.00
24788;BME280;12883;52.662;5.196;2022-09-09T13:57:19;100544.81;;;19.02;100.00
24788;BME280;12883;52.662;5.196;2022-09-09T13:59:46;100538.13;;;19.09;100.00
24788;BME280;12883;52.662;5.196;2022-09-09T14:02:12;100540.88;;;19.19;100.00
24788;BME280;12883;52.662;5.196;2022-09-09T14:04:38;100536.91;;;19.27;100.00
24788;BME280;12883;52.662;5.196;2022-09-09T14:07:10;100536.09;;;19.26;100.00
24788;BME280;12883;52.662;5.196;2022-09-09T14:09:36;100552.84;;;19.43;100.00
24788;BME280;12883;52.662;5.196;2022-09-09T14:12:02;100544.78;;;19.48;100.00
24788;BME280;12883;52.662;5.196;2022-09-09T14:14:27;100545.03;;;19.42;100.00
24788;BME280;12883;52.662;5.196;2022-09-09T14:16:52;100538.25;;;19.34;100.00
24788;BME280;12883;52.662;5.196;2022-09-09T14:19:18;100557.09;;;19.29;100.00
24788;BME280;12883;52.662;5.196;2022-09-09T14:21:43;100547.88;;;19.20;100.00
24788;BME280;12883;52.662;5.196;2022-09-09T14:24:09;100551.59;;;19.09;100.00
24788;BME280;12883;52.662;5.196;2022-09-09T14:26:34;100533.75;;;18.98;100.00
24788;BME280;12883;52.662;5.196;2022-09-09T14:28:59;100539.22;;;19.08;100.00
24788;BME280;12883;52.662;5.196;2022-09-09T14:31:26;100549.69;;;19.10;100.00
24788;BME280;12883;52.662;5.196;2022-09-09T14:33:52;100540.25;;;19.07;100.00
24788;BME280;12883;52.662;5.196;2022-09-09T14:36:17;100533.25;;;19.01;100.00
24788;BME280;12883;52.662;5.196;2022-09-09T14:38:43;100542.16;;;19.07;100.00
24788;BME280;12883;52.662;5.196;2022-09-09T14:41:14;100535.16;;;19.06;100.00
24788;BME280;12883;52.662;5.196;2022-09-09T14:43:41;100540.47;;;18.96;100.00
24788;BME280;12883;52.662;5.196;2022-09-09T14:46:08;100527.59;;;18.98;100.00
24788;BME280;12883;52.662;5.196;2022-09-09T14:48:35;100532.38;;;18.91;100.00